createdAt,value
2018-07-12T00:02:13.201Z,16.70
2018-07-12T00:04:41.128Z,16.60
2018-07-12T00:07:09.013Z,16.70
2018-07-12T00:09:36.877Z,16.60
2018-07-12T00:12:04.756Z,16.70
2018-07-12T00:14:32.720Z,16.70
2018-07-12T00:17:00.565Z,16.70
2018-07-12T00:19:28.489Z,16.70
2018-07-12T00:21:56.542Z,16.70
2018-07-12T00:24:24.413Z,16.70
2018-07-12T00:26:52.248Z,16.70
2018-07-12T00:29:20.252Z,16.80
2018-07-12T00:31:48.308Z,16.80
2018-07-12T00:34:16.200Z,16.80
2018-07-12T00:36:44.120Z,16.80
2018-07-12T00:39:12.027Z,16.80
2018-07-12T00:41:39.897Z,16.80
2018-07-12T00:44:07.741Z,16.80
2018-07-12T00:46:35.672Z,16.80
2018-07-12T00:49:03.535Z,16.80
2018-07-12T00:51:31.760Z,16.80
2018-07-12T00:53:59.612Z,16.90
2018-07-12T00:56:27.460Z,16.80
2018-07-12T00:58:55.329Z,16.80
2018-07-12T01:01:23.180Z,16.80
2018-07-12T01:03:51.079Z,16.80
2018-07-12T01:06:18.947Z,16.80
2018-07-12T01:08:46.813Z,16.80
2018-07-12T01:11:14.715Z,16.80
2018-07-12T01:13:42.582Z,16.80
2018-07-12T01:16:10.472Z,16.80
2018-07-12T01:18:38.414Z,16.80
2018-07-12T01:21:06.364Z,16.80
2018-07-12T01:23:34.197Z,16.80
2018-07-12T01:26:02.116Z,16.80
2018-07-12T01:28:29.963Z,16.80
2018-07-12T01:30:57.860Z,16.80
2018-07-12T01:33:25.695Z,16.80
2018-07-12T01:35:53.603Z,16.80
2018-07-12T01:38:21.464Z,16.70
2018-07-12T01:40:49.351Z,16.60
2018-07-12T01:43:17.212Z,16.60
2018-07-12T01:45:45.056Z,16.50
2018-07-12T01:48:13.368Z,16.50
2018-07-12T01:50:41.326Z,16.50
2018-07-12T01:53:09.224Z,16.40
2018-07-12T01:55:37.093Z,16.40
2018-07-12T01:58:04.972Z,16.40
2018-07-12T02:00:32.858Z,16.40
2018-07-12T02:03:00.706Z,16.40
2018-07-12T02:05:28.653Z,16.40
2018-07-12T02:07:56.528Z,16.40
2018-07-12T02:10:24.384Z,16.40
2018-07-12T02:12:52.235Z,16.30
2018-07-12T02:15:20.143Z,16.20
2018-07-12T02:17:48.034Z,16.20
2018-07-12T02:20:15.904Z,16.20
2018-07-12T02:22:43.754Z,16.20
2018-07-12T02:25:11.638Z,16.10
2018-07-12T02:27:39.495Z,16.10
2018-07-12T02:30:07.578Z,16.10
2018-07-12T02:32:35.424Z,16.10
2018-07-12T02:35:03.881Z,16.00
2018-07-12T02:37:31.823Z,16.00
2018-07-12T02:39:59.690Z,16.10
2018-07-12T02:42:27.641Z,16.10
2018-07-12T02:44:55.492Z,16.10
2018-07-12T02:47:23.416Z,16.10
2018-07-12T02:49:51.273Z,16.10
2018-07-12T02:52:19.141Z,16.10
2018-07-12T02:54:47.082Z,16.10
2018-07-12T02:57:14.976Z,16.20
2018-07-12T02:59:42.838Z,16.20
2018-07-12T03:02:10.740Z,16.20
2018-07-12T03:04:38.685Z,16.20
2018-07-12T03:07:06.557Z,16.30
2018-07-12T03:09:34.443Z,16.30
2018-07-12T03:12:03.313Z,16.30
2018-07-12T03:14:31.196Z,16.30
2018-07-12T03:16:59.058Z,16.30
2018-07-12T03:19:26.946Z,16.30
2018-07-12T03:21:55.015Z,16.30
2018-07-12T03:24:22.866Z,16.40
2018-07-12T03:26:51.328Z,16.40
2018-07-12T03:29:19.237Z,16.40
2018-07-12T03:31:47.091Z,16.50
2018-07-12T03:34:17.947Z,16.40
2018-07-12T03:36:45.833Z,16.50
2018-07-12T03:39:13.697Z,16.50
2018-07-12T03:41:41.563Z,16.50
2018-07-12T03:44:09.699Z,16.50
2018-07-12T03:46:37.593Z,16.50
2018-07-12T03:49:05.474Z,16.50
2018-07-12T03:51:33.325Z,16.50
2018-07-12T03:54:01.227Z,16.50
2018-07-12T03:56:29.917Z,16.40
2018-07-12T03:58:57.899Z,16.40
2018-07-12T04:01:25.809Z,16.40
2018-07-12T04:03:53.780Z,16.50
2018-07-12T04:06:21.628Z,16.40
2018-07-12T04:08:50.950Z,16.40
2018-07-12T04:11:18.792Z,16.40
2018-07-12T04:13:46.684Z,16.50
2018-07-12T04:16:14.543Z,16.40
2018-07-12T04:18:42.428Z,16.50
2018-07-12T04:21:11.237Z,16.50
2018-07-12T04:23:39.086Z,16.50
2018-07-12T04:26:07.025Z,16.50
2018-07-12T04:28:34.922Z,16.50
2018-07-12T04:31:03.378Z,16.60
2018-07-12T04:33:31.259Z,16.60
2018-07-12T04:35:59.111Z,16.60
2018-07-12T04:38:27.018Z,16.60
2018-07-12T04:40:54.870Z,16.60
2018-07-12T04:43:22.725Z,16.70
2018-07-12T04:45:50.584Z,16.70
2018-07-12T04:48:18.578Z,16.70
2018-07-12T04:50:46.450Z,16.70
2018-07-12T04:53:14.354Z,16.70
2018-07-12T04:55:42.212Z,16.70
2018-07-12T04:58:10.137Z,16.70
2018-07-12T05:00:37.994Z,16.70
2018-07-12T05:03:05.847Z,16.80
2018-07-12T05:05:33.733Z,16.80
2018-07-12T05:08:02.078Z,16.90
2018-07-12T05:10:30.359Z,16.90
2018-07-12T05:12:58.235Z,16.90
2018-07-12T05:15:26.188Z,17.00
2018-07-12T05:17:54.153Z,17.00
2018-07-12T05:20:22.033Z,17.00
2018-07-12T05:22:50.797Z,17.00
2018-07-12T05:25:18.658Z,17.00
2018-07-12T05:27:46.532Z,17.10
2018-07-12T05:30:14.384Z,17.10
2018-07-12T05:32:42.267Z,17.10
2018-07-12T05:37:39.359Z,17.10
2018-07-12T05:40:08.323Z,17.10
2018-07-12T05:42:37.377Z,17.10
2018-07-12T05:45:06.487Z,17.10
2018-07-12T05:47:35.564Z,17.10
2018-07-12T05:50:04.599Z,17.10
2018-07-12T05:52:33.583Z,17.10
2018-07-12T05:55:16.828Z,17.20
2018-07-12T05:57:46.339Z,17.20
2018-07-12T06:00:15.812Z,17.30
2018-07-12T06:02:44.833Z,17.30
2018-07-12T06:05:13.818Z,17.30
2018-07-12T06:07:42.761Z,17.40
2018-07-12T06:10:11.754Z,17.50
2018-07-12T06:12:40.746Z,17.60
2018-07-12T06:17:38.373Z,17.60
2018-07-12T06:20:08.674Z,17.70
2018-07-12T06:22:37.708Z,17.80
2018-07-12T06:25:07.086Z,17.90
2018-07-12T06:27:36.180Z,17.90
2018-07-12T06:30:05.858Z,18.00
2018-07-12T06:32:34.793Z,18.00
2018-07-12T06:35:03.861Z,18.10
2018-07-12T06:37:32.865Z,18.10
2018-07-12T06:40:01.959Z,18.00
2018-07-12T06:42:31.063Z,18.00
2018-07-12T06:45:01.077Z,18.10
2018-07-12T06:47:30.171Z,18.10
2018-07-12T06:49:59.160Z,18.10
2018-07-12T06:52:28.156Z,18.10
2018-07-12T06:54:57.273Z,18.10
2018-07-12T06:59:55.323Z,18.20
2018-07-12T07:02:24.324Z,18.30
2018-07-12T07:04:53.307Z,18.40
2018-07-12T07:07:22.321Z,18.40
2018-07-12T07:09:51.319Z,18.40
2018-07-12T07:12:20.301Z,18.50
2018-07-12T07:14:49.396Z,18.50
2018-07-12T07:17:18.370Z,18.50
2018-07-12T07:19:47.384Z,18.60
2018-07-12T07:22:16.369Z,18.50
2018-07-12T07:24:45.452Z,18.50
2018-07-12T07:29:43.195Z,18.70
2018-07-12T07:32:12.165Z,19.10
2018-07-12T07:34:41.175Z,19.50
2018-07-12T07:37:10.296Z,19.90
2018-07-12T07:39:39.279Z,20.30
2018-07-12T07:42:08.307Z,20.40
2018-07-12T07:44:37.337Z,20.40
2018-07-12T07:47:06.399Z,20.50
2018-07-12T07:49:35.492Z,20.80
2018-07-12T07:52:04.454Z,20.90
2018-07-12T07:54:33.854Z,21.00
2018-07-12T07:57:02.943Z,21.00
2018-07-12T07:59:31.858Z,21.10
2018-07-12T08:02:00.851Z,21.20
2018-07-12T08:04:29.933Z,21.20
2018-07-12T08:06:58.954Z,21.20
2018-07-12T08:09:28.057Z,21.50
2018-07-12T08:11:57.018Z,21.80
2018-07-12T08:14:25.958Z,22.00
2018-07-12T08:16:55.450Z,21.90
2018-07-12T08:19:24.429Z,22.00
2018-07-12T08:22:05.781Z,22.70
2018-07-12T08:24:35.317Z,23.00
2018-07-12T08:27:04.933Z,23.40
2018-07-12T08:29:34.353Z,23.90
2018-07-12T08:32:04.463Z,23.90
2018-07-12T08:34:33.851Z,23.70
2018-07-12T08:37:02.876Z,23.30
2018-07-12T08:39:31.836Z,23.20
2018-07-12T08:42:00.804Z,23.60
2018-07-12T08:44:29.766Z,23.40
2018-07-12T08:46:58.837Z,23.30
2018-07-12T08:49:28.285Z,23.50
2018-07-12T08:51:57.278Z,23.50
2018-07-12T08:54:26.280Z,23.20
2018-07-12T08:56:55.257Z,23.10
2018-07-12T08:59:24.235Z,23.20
2018-07-12T09:01:53.264Z,24.00
2018-07-12T09:04:22.189Z,25.00
2018-07-12T09:06:51.166Z,26.10
2018-07-12T09:09:20.215Z,26.40
2018-07-12T09:11:49.247Z,26.30
2018-07-12T09:14:18.228Z,26.80
2018-07-12T09:16:47.252Z,28.00
2018-07-12T09:19:16.253Z,28.10
2018-07-12T09:21:45.480Z,26.90
2018-07-12T09:24:14.435Z,26.30
2018-07-12T09:26:43.423Z,26.10
2018-07-12T09:29:12.579Z,25.50
2018-07-12T09:31:41.625Z,25.70
2018-07-12T09:34:10.649Z,25.40
2018-07-12T09:36:39.651Z,25.60
2018-07-12T09:39:08.892Z,25.40
2018-07-12T09:41:37.835Z,24.90
2018-07-12T09:44:06.803Z,25.30
2018-07-12T09:46:35.748Z,26.10
2018-07-12T09:49:04.876Z,27.80
2018-07-12T09:51:33.802Z,28.40
2018-07-12T09:54:02.759Z,29.40
2018-07-12T09:56:43.157Z,29.80
2018-07-12T09:59:12.191Z,29.50
2018-07-12T10:04:15.087Z,29.20
2018-07-12T10:06:49.362Z,29.70
2018-07-12T10:09:24.682Z,30.00
2018-07-12T10:13:02.991Z,29.70
2018-07-12T10:15:37.282Z,29.20
2018-07-12T10:18:11.769Z,29.00
2018-07-12T10:20:40.734Z,28.70
2018-07-12T10:23:09.725Z,28.10
2018-07-12T10:25:38.714Z,27.60
2018-07-12T10:28:07.789Z,26.60
2018-07-12T10:30:36.742Z,26.80
2018-07-12T10:33:05.789Z,27.50
2018-07-12T10:35:35.805Z,28.00
2018-07-12T10:38:04.926Z,28.60
2018-07-12T10:40:33.905Z,28.40
2018-07-12T10:43:02.970Z,29.50
2018-07-12T10:45:31.917Z,28.90
2018-07-12T10:48:00.893Z,29.40
2018-07-12T10:50:29.978Z,30.40
2018-07-12T10:52:58.954Z,30.10
2018-07-12T10:55:27.892Z,29.40
2018-07-12T10:57:57.451Z,29.60
2018-07-12T11:00:26.485Z,30.30
2018-07-12T11:05:24.094Z,29.90
2018-07-12T11:07:53.195Z,29.90
2018-07-12T11:10:22.232Z,30.20
2018-07-12T11:13:02.696Z,30.10
2018-07-12T11:15:31.693Z,28.80
2018-07-12T11:18:00.732Z,28.70
2018-07-12T11:20:29.799Z,29.20
2018-07-12T11:22:58.811Z,29.80
2018-07-12T11:25:27.796Z,29.50
2018-07-12T11:27:56.813Z,28.50
2018-07-12T11:30:25.913Z,28.30
2018-07-12T11:32:54.864Z,29.10
2018-07-12T11:35:23.833Z,29.50
2018-07-12T11:37:52.963Z,30.20
2018-07-12T11:40:21.919Z,29.00
2018-07-12T11:42:51.045Z,28.80
2018-07-12T11:45:20.024Z,29.10
2018-07-12T11:47:49.013Z,29.20
2018-07-12T11:50:17.996Z,28.70
2018-07-12T11:52:47.049Z,29.00
2018-07-12T11:55:16.031Z,28.70
2018-07-12T11:57:44.992Z,29.10
2018-07-12T12:00:13.971Z,29.90
2018-07-12T12:02:42.939Z,30.50
2018-07-12T12:05:11.865Z,29.60
2018-07-12T12:07:40.861Z,29.60
2018-07-12T12:10:09.830Z,29.60
2018-07-12T12:12:38.804Z,30.20
2018-07-12T12:15:07.800Z,29.30
2018-07-12T12:17:36.868Z,29.00
2018-07-12T12:20:05.843Z,28.20
2018-07-12T12:22:34.829Z,28.10
2018-07-12T12:25:03.923Z,27.80
2018-07-12T12:27:32.937Z,28.00
2018-07-12T12:30:01.960Z,28.30
2018-07-12T12:32:31.000Z,28.90
2018-07-12T12:37:28.605Z,29.80
2018-07-12T12:39:57.624Z,29.30
2018-07-12T12:42:26.708Z,28.70
2018-07-12T12:44:56.140Z,27.90
2018-07-12T12:47:25.224Z,28.00
2018-07-12T12:49:54.288Z,28.00
2018-07-12T12:52:23.240Z,28.60
2018-07-12T12:54:52.206Z,29.10
2018-07-12T12:57:21.209Z,28.80
2018-07-12T12:59:50.483Z,29.20
2018-07-12T13:04:48.087Z,28.90
2018-07-12T13:07:17.064Z,28.50
2018-07-12T13:09:46.015Z,28.20
2018-07-12T13:12:15.087Z,27.90
2018-07-12T13:14:44.994Z,27.70
2018-07-12T13:17:13.968Z,27.60
2018-07-12T13:19:43.280Z,27.40
2018-07-12T13:22:12.216Z,27.90
2018-07-12T13:24:41.300Z,28.70
2018-07-12T13:27:10.247Z,29.10
2018-07-12T13:29:39.203Z,29.40
2018-07-12T13:32:08.176Z,29.60
2018-07-12T13:34:37.170Z,29.50
2018-07-12T13:37:06.149Z,29.90
2018-07-12T13:39:35.182Z,29.30
2018-07-12T13:42:04.235Z,29.40
2018-07-12T13:44:33.209Z,29.50
2018-07-12T13:47:02.176Z,29.60
2018-07-12T13:49:31.148Z,29.00
2018-07-12T13:52:00.173Z,27.90
2018-07-12T13:54:29.156Z,28.10
2018-07-12T13:56:58.115Z,28.40
2018-07-12T13:59:27.124Z,28.50
2018-07-12T14:01:56.117Z,29.10
2018-07-12T14:04:25.077Z,29.40
2018-07-12T14:06:54.068Z,29.70
2018-07-12T14:09:23.120Z,29.70
2018-07-12T14:11:52.327Z,29.70
2018-07-12T14:14:21.307Z,29.60
2018-07-12T14:16:50.281Z,30.00
2018-07-12T14:19:19.245Z,30.50
2018-07-12T14:21:48.248Z,30.20
2018-07-12T14:24:17.215Z,30.00
2018-07-12T14:26:46.181Z,29.80
2018-07-12T14:29:15.212Z,30.00
2018-07-12T14:31:44.190Z,30.20
2018-07-12T14:34:13.191Z,30.60
2018-07-12T14:36:42.292Z,31.10
2018-07-12T14:44:09.525Z,30.50
2018-07-12T14:46:38.492Z,30.40
2018-07-12T14:49:07.459Z,30.00
2018-07-12T14:51:36.502Z,29.20
2018-07-12T14:54:05.523Z,28.80
2018-07-12T14:56:34.580Z,29.50
2018-07-12T14:59:03.865Z,30.00
2018-07-12T15:01:33.201Z,30.00
2018-07-12T15:04:02.162Z,29.50
2018-07-12T15:06:31.255Z,28.80
2018-07-12T15:09:00.304Z,28.20
2018-07-12T15:11:29.206Z,27.90
2018-07-12T15:13:58.222Z,27.40
2018-07-12T15:16:27.171Z,27.20
2018-07-12T15:18:56.716Z,27.00
2018-07-12T15:21:25.720Z,26.90
2018-07-12T15:23:54.724Z,26.80
2018-07-12T15:28:52.963Z,26.40
2018-07-12T15:31:21.938Z,26.30
2018-07-12T15:33:50.959Z,26.40
2018-07-12T15:36:19.941Z,26.60
2018-07-12T15:38:49.046Z,26.50
2018-07-12T15:41:18.030Z,26.30
2018-07-12T15:43:47.025Z,26.40
2018-07-12T15:46:16.040Z,26.40
2018-07-12T15:48:45.004Z,26.30
2018-07-12T15:51:14.120Z,26.10
2018-07-12T15:53:43.117Z,26.20
2018-07-12T15:56:12.243Z,26.10
2018-07-12T15:58:41.426Z,26.00
2018-07-12T16:01:10.413Z,26.10
2018-07-12T16:06:08.061Z,26.30
2018-07-12T16:08:37.179Z,26.40
2018-07-12T16:11:06.300Z,26.30
2018-07-12T16:13:35.510Z,26.20
2018-07-12T16:16:04.720Z,26.10
2018-07-12T16:18:33.807Z,26.00
2018-07-12T16:21:03.253Z,26.00
2018-07-12T16:23:32.213Z,25.90
2018-07-12T16:26:01.257Z,26.00
2018-07-12T16:28:30.558Z,26.10
2018-07-12T16:30:59.706Z,26.00
2018-07-12T16:33:28.828Z,26.00
2018-07-12T16:35:57.826Z,25.90
2018-07-12T16:38:26.840Z,25.90
2018-07-12T16:40:55.897Z,25.50
2018-07-12T16:43:24.935Z,25.00
2018-07-12T16:45:54.010Z,24.70
2018-07-12T16:48:23.096Z,24.40
2018-07-12T16:50:58.785Z,24.20
2018-07-12T16:53:27.867Z,24.00
2018-07-12T16:55:56.876Z,23.70
2018-07-12T16:58:25.951Z,23.60
2018-07-12T17:00:54.985Z,23.40
2018-07-12T17:03:24.007Z,23.30
2018-07-12T17:05:53.126Z,23.20
2018-07-12T17:08:22.235Z,23.20
2018-07-12T17:10:51.262Z,23.20
2018-07-12T17:13:21.522Z,23.20
2018-07-12T17:15:51.105Z,23.30
2018-07-12T17:18:21.295Z,23.40
2018-07-12T17:20:50.282Z,23.40
2018-07-12T17:23:19.257Z,23.50
2018-07-12T17:28:17.369Z,23.70
2018-07-12T17:30:46.481Z,23.80
2018-07-12T17:33:15.490Z,24.00
2018-07-12T17:35:44.908Z,24.20
2018-07-12T17:38:13.925Z,24.10
2018-07-12T17:40:43.060Z,24.00
2018-07-12T17:43:12.443Z,23.60
2018-07-12T17:45:41.501Z,22.70
2018-07-12T17:48:10.615Z,21.60
2018-07-12T17:50:39.734Z,20.80
2018-07-12T17:53:09.009Z,20.80
2018-07-12T17:55:38.044Z,20.70
2018-07-12T17:58:08.095Z,20.70
2018-07-12T18:00:37.116Z,20.70
2018-07-12T18:03:06.369Z,20.50
2018-07-12T18:05:35.559Z,20.30
2018-07-12T18:08:04.597Z,20.30
2018-07-12T18:10:34.500Z,20.30
2018-07-12T18:13:03.640Z,20.30
2018-07-12T18:15:32.727Z,20.30
2018-07-12T18:18:01.750Z,20.30
2018-07-12T18:20:30.805Z,20.30
2018-07-12T18:22:59.945Z,20.30
2018-07-12T18:25:28.930Z,20.40
2018-07-12T18:27:57.886Z,20.40
2018-07-12T18:30:26.909Z,20.40
2018-07-12T18:32:56.007Z,20.40
2018-07-12T18:35:25.088Z,20.40
2018-07-12T18:37:54.242Z,20.40
2018-07-12T18:40:23.278Z,20.40
2018-07-12T18:42:52.387Z,20.50
2018-07-12T18:45:21.549Z,20.40
2018-07-12T18:47:50.574Z,20.50
2018-07-12T18:50:19.628Z,20.50
2018-07-12T18:52:48.676Z,20.50
2018-07-12T18:55:17.705Z,20.50
2018-07-12T18:57:46.798Z,20.50
2018-07-12T19:00:15.798Z,20.50
2018-07-12T19:02:44.905Z,20.50
2018-07-12T19:05:13.909Z,20.40
2018-07-12T19:07:42.925Z,20.40
2018-07-12T19:10:11.899Z,20.30
2018-07-12T19:12:41.112Z,20.30
2018-07-12T19:15:10.297Z,20.20
2018-07-12T19:17:40.274Z,20.10
2018-07-12T19:20:09.420Z,20.00
2018-07-12T19:22:38.359Z,19.90
2018-07-12T19:25:07.400Z,19.90
2018-07-12T19:27:36.527Z,19.70
2018-07-12T19:30:05.725Z,19.70
2018-07-12T19:32:34.752Z,19.60
2018-07-12T19:35:04.030Z,19.50
2018-07-12T19:37:32.906Z,19.40
2018-07-12T19:40:02.095Z,19.40
2018-07-12T19:42:31.096Z,19.30
2018-07-12T19:50:20.764Z,19.10
2018-07-12T19:52:49.704Z,19.00
2018-07-12T19:55:18.735Z,18.90
2018-07-12T19:57:47.764Z,18.80
2018-07-12T20:02:45.431Z,18.70
2018-07-12T20:05:14.401Z,18.60
2018-07-12T20:07:43.405Z,18.60
2018-07-12T20:10:12.403Z,18.50
2018-07-12T20:12:41.376Z,18.50
2018-07-12T20:15:10.360Z,18.50
2018-07-12T20:17:39.469Z,18.50
2018-07-12T20:20:08.951Z,18.40
2018-07-12T20:22:37.944Z,18.40
2018-07-12T20:25:06.990Z,18.40
2018-07-12T20:27:36.165Z,18.30
2018-07-12T20:30:05.968Z,18.30
2018-07-12T20:32:35.071Z,18.30
2018-07-12T20:35:04.190Z,18.20
2018-07-12T20:37:33.244Z,18.20
2018-07-12T20:40:02.248Z,18.20
2018-07-12T20:44:59.978Z,18.10
2018-07-12T20:47:28.956Z,18.00
2018-07-12T20:49:57.948Z,18.00
2018-07-12T20:52:26.999Z,18.00
2018-07-12T20:54:56.050Z,18.00
2018-07-12T20:57:25.095Z,17.90
2018-07-12T20:59:54.104Z,18.00
2018-07-12T21:04:52.620Z,18.00
2018-07-12T21:07:21.762Z,18.00
2018-07-12T21:09:50.846Z,18.10
2018-07-12T21:12:19.833Z,18.10
2018-07-12T21:14:48.831Z,18.10
2018-07-12T21:17:18.164Z,18.10
2018-07-12T21:19:47.161Z,18.00
2018-07-12T21:22:16.166Z,18.00
2018-07-12T21:24:45.126Z,17.90
2018-07-12T21:27:14.149Z,17.90
2018-07-12T21:29:43.232Z,17.90
2018-07-12T21:32:12.244Z,17.90
2018-07-12T21:34:41.612Z,18.00
2018-07-12T21:37:10.583Z,18.00
2018-07-12T21:39:40.111Z,18.00
2018-07-12T21:42:09.134Z,18.00
2018-07-12T21:44:38.230Z,18.00
2018-07-12T21:47:07.171Z,17.90
2018-07-12T21:49:36.221Z,17.90
2018-07-12T21:52:05.243Z,17.90
2018-07-12T21:54:34.203Z,17.80
2018-07-12T21:57:03.180Z,17.80
2018-07-12T21:59:32.214Z,17.70
2018-07-12T22:02:01.227Z,17.70
2018-07-12T22:04:30.307Z,17.70
2018-07-12T22:07:08.436Z,17.70
2018-07-12T22:09:37.447Z,17.70
2018-07-12T22:12:06.575Z,17.90
2018-07-12T22:14:35.659Z,17.90
2018-07-12T22:17:04.742Z,17.80
2018-07-12T22:19:33.764Z,17.70
2018-07-12T22:22:02.999Z,17.70
2018-07-12T22:24:32.024Z,17.60
2018-07-12T22:27:01.008Z,17.60
2018-07-12T22:29:30.078Z,17.50
2018-07-12T22:31:59.547Z,17.50
2018-07-12T22:34:28.661Z,17.50
2018-07-12T22:36:58.533Z,17.40
2018-07-12T22:39:27.569Z,17.40
2018-07-12T22:41:56.552Z,17.50
2018-07-12T22:44:25.633Z,17.50
2018-07-12T22:46:54.607Z,17.50
2018-07-12T22:49:24.358Z,17.50
2018-07-12T22:51:53.860Z,17.40
2018-07-12T22:54:22.971Z,17.40
2018-07-12T22:56:52.259Z,17.40
2018-07-12T22:59:21.229Z,17.40
2018-07-12T23:01:50.244Z,17.40
2018-07-12T23:04:19.347Z,17.40
2018-07-12T23:06:48.471Z,17.40
2018-07-12T23:09:17.483Z,17.60
2018-07-12T23:11:46.467Z,17.60
2018-07-12T23:14:16.091Z,17.60
2018-07-12T23:16:45.068Z,17.70
2018-07-12T23:19:14.072Z,17.60
2018-07-12T23:21:43.567Z,17.70
2018-07-12T23:24:12.829Z,17.80
2018-07-12T23:26:42.031Z,17.80
2018-07-12T23:29:11.050Z,17.70
2018-07-12T23:31:40.139Z,17.60
2018-07-12T23:34:09.202Z,17.70
2018-07-12T23:39:08.150Z,17.70
2018-07-12T23:41:37.129Z,17.70
2018-07-12T23:44:06.234Z,17.70
2018-07-12T23:46:35.201Z,17.70
2018-07-12T23:49:04.935Z,17.60
2018-07-12T23:51:34.681Z,17.60
2018-07-12T23:54:03.703Z,17.60
2018-07-12T23:56:32.643Z,17.50
2018-07-12T23:59:01.637Z,17.50
